Time;durP1;ratioP1;P1;durP2;ratioP2;P2;SDS_P1;SDS_P2;PMS_P1;PMS_P2;Temp;Humidity;BMP_temperature;BMP_pressure;BME280_temperature;BME280_humidity;BME280_pressure;Samples;Min_cycle;Max_cycle;Signal;HPM_P1;HPM_P2
2021/08/24 00:00:26;;;;;;;;;;;12.80;87.80;;;;;;5093197;28;19923;-59
2021/08/24 00:02:52;;;;;;;;;;;12.80;87.80;;;;;;5093339;28;19987;-59
2021/08/24 00:05:20;;;;;;;;;;;12.70;87.80;;;;;;5074377;28;20420;-59
2021/08/24 00:07:45;;;;;;;;;;;12.70;87.90;;;;;;5092817;28;19923;-59
2021/08/24 00:10:11;;;;;;;;;;;12.70;88.00;;;;;;5093557;28;20431;-58
2021/08/24 00:12:36;;;;;;;;;;;12.60;88.10;;;;;;5092881;28;20375;-59
2021/08/24 00:15:02;;;;;;;;;;;12.60;88.30;;;;;;5093420;28;19916;-59
2021/08/24 00:17:28;;;;;;;;;;;12.60;88.40;;;;;;5074906;28;19951;-59
2021/08/24 00:19:53;;;;;;;;;;;12.60;88.50;;;;;;5074805;28;19952;-59
2021/08/24 00:22:19;;;;;;;;;;;12.50;88.50;;;;;;5093306;28;19916;-59
2021/08/24 00:24:44;;;;;;;;;;;12.50;88.60;;;;;;5092906;28;19920;-58
2021/08/24 00:27:10;;;;;;;;;;;12.40;88.60;;;;;;5092512;28;20477;-58
2021/08/24 00:29:37;;;;;;;;;;;12.50;88.80;;;;;;5074662;28;21282;-59
2021/08/24 00:32:03;;;;;;;;;;;12.40;88.90;;;;;;5074424;28;19916;-59
2021/08/24 00:34:28;;;;;;;;;;;12.40;89.00;;;;;;5092967;28;20003;-59
2021/08/24 00:36:54;;;;;;;;;;;12.40;89.10;;;;;;5092840;28;19920;-58
2021/08/24 00:39:19;;;;;;;;;;;12.30;89.20;;;;;;5074516;28;19924;-59
2021/08/24 00:41:45;;;;;;;;;;;12.30;89.40;;;;;;5092845;28;20364;-59
2021/08/24 00:44:10;;;;;;;;;;;12.30;89.50;;;;;;5092942;28;20388;-59
2021/08/24 00:46:47;;;;;;;;;;;12.30;89.50;;;;;;5092227;28;19998;-58
2021/08/24 00:49:15;;;;;;;;;;;12.20;89.50;;;;;;5093158;28;20288;-58
2021/08/24 00:51:42;;;;;;;;;;;12.20;89.60;;;;;;5092296;28;20265;-58
2021/08/24 00:54:08;;;;;;;;;;;12.20;89.70;;;;;;5074767;28;19916;-58
2021/08/24 00:56:34;;;;;;;;;;;12.20;89.80;;;;;;5092751;28;19920;-58
2021/08/24 00:59:00;;;;;;;;;;;12.10;89.80;;;;;;5092083;28;19923;-58
2021/08/24 01:01:26;;;;;;;;;;;12.10;89.70;;;;;;5092804;28;20287;-58
2021/08/24 01:03:52;;;;;;;;;;;12.10;90.00;;;;;;5074056;28;19920;-58
2021/08/24 01:06:25;;;;;;;;;;;12.10;90.00;;;;;;5057808;28;20321;-58
2021/08/24 01:09:17;;;;;;;;;;;12.00;90.00;;;;;;5092203;28;19920;-58
2021/08/24 01:11:48;;;;;;;;;;;12.00;90.10;;;;;;5092520;28;19917;-59
2021/08/24 01:14:26;;;;;;;;;;;12.00;90.10;;;;;;5092342;28;19916;-58
2021/08/24 01:17:09;;;;;;;;;;;12.00;90.10;;;;;;5091834;28;20061;-58
2021/08/24 01:19:37;;;;;;;;;;;11.90;90.20;;;;;;5092414;28;20299;-58
2021/08/24 01:22:21;;;;;;;;;;;11.90;90.20;;;;;;5091787;28;19912;-58
2021/08/24 01:24:59;;;;;;;;;;;11.90;90.20;;;;;;5091563;28;20296;-58
2021/08/24 01:27:45;;;;;;;;;;;11.90;90.20;;;;;;5091892;28;19916;-58
2021/08/24 01:30:31;;;;;;;;;;;11.80;90.20;;;;;;5077247;28;19916;-58
2021/08/24 01:33:12;;;;;;;;;;;11.80;90.40;;;;;;5073500;28;20288;-61
2021/08/24 01:35:56;;;;;;;;;;;11.80;90.40;;;;;;5091994;28;19916;-58
2021/08/24 01:38:27;;;;;;;;;;;11.80;90.50;;;;;;5091208;28;20265;-58
2021/08/24 01:41:05;;;;;;;;;;;11.80;90.50;;;;;;5092035;28;20334;-58
2021/08/24 01:43:39;;;;;;;;;;;11.70;90.70;;;;;;5090845;28;19995;-58
2021/08/24 01:46:16;;;;;;;;;;;11.70;90.50;;;;;;5091695;28;19920;-58
2021/08/24 01:48:45;;;;;;;;;;;11.70;90.50;;;;;;5091391;28;19920;-58
2021/08/24 01:51:17;;;;;;;;;;;11.60;90.60;;;;;;5091773;28;19951;-58
2021/08/24 01:53:49;;;;;;;;;;;11.60;90.60;;;;;;5091412;28;19999;-58
2021/08/24 01:56:20;;;;;;;;;;;11.60;90.60;;;;;;5073851;28;19916;-58
2021/08/24 01:58:49;;;;;;;;;;;11.60;90.70;;;;;;5090974;28;19924;-58
2021/08/24 02:01:17;;;;;;;;;;;11.50;90.70;;;;;;5091704;28;20002;-58
2021/08/24 02:03:53;;;;;;;;;;;11.50;90.70;;;;;;5091695;28;20388;-58
2021/08/24 02:06:37;;;;;;;;;;;11.50;90.80;;;;;;5091400;28;20391;-58
2021/08/24 02:09:06;;;;;;;;;;;11.50;90.80;;;;;;5091757;28;19916;-58
2021/08/24 02:11:33;;;;;;;;;;;11.50;90.80;;;;;;5073123;28;19920;-58
2021/08/24 02:14:00;;;;;;;;;;;11.50;90.80;;;;;;5091655;28;19965;-58
2021/08/24 02:16:27;;;;;;;;;;;11.50;90.80;;;;;;5091250;28;19912;-58
2021/08/24 02:18:55;;;;;;;;;;;11.50;90.90;;;;;;5091426;28;20371;-58
2021/08/24 02:21:26;;;;;;;;;;;11.50;90.90;;;;;;5091688;28;19998;-58
2021/08/24 02:23:53;;;;;;;;;;;11.40;90.90;;;;;;5091234;28;19916;-58
2021/08/24 02:26:20;;;;;;;;;;;11.30;90.90;;;;;;5073900;28;20045;-63
2021/08/24 02:28:56;;;;;;;;;;;11.40;91.00;;;;;;5094677;28;19963;-64
2021/08/24 02:31:40;;;;;;;;;;;11.30;90.90;;;;;;5095570;28;19920;-63
2021/08/24 02:34:12;;;;;;;;;;;11.30;91.00;;;;;;5095539;28;19916;-63
2021/08/24 02:36:39;;;;;;;;;;;11.30;91.10;;;;;;5095225;28;19916;-62
2021/08/24 02:39:11;;;;;;;;;;;11.30;91.10;;;;;;5094943;28;19920;-63
2021/08/24 02:41:42;;;;;;;;;;;11.30;91.10;;;;;;5095595;28;19923;-63
2021/08/24 02:44:14;;;;;;;;;;;11.20;91.10;;;;;;5076425;28;20384;-63
2021/08/24 02:46:41;;;;;;;;;;;11.20;91.00;;;;;;5095260;28;20058;-62
2021/08/24 02:49:09;;;;;;;;;;;11.20;91.10;;;;;;5076771;28;19920;-62
2021/08/24 02:51:34;;;;;;;;;;;11.20;91.20;;;;;;5060461;28;20284;-65
2021/08/24 02:54:04;;;;;;;;;;;11.10;91.20;;;;;;5077073;28;19916;-62
2021/08/24 02:56:29;;;;;;;;;;;11.10;91.30;;;;;;5094703;28;19916;-63
2021/08/24 02:58:55;;;;;;;;;;;11.10;91.30;;;;;;5094960;28;19920;-62
2021/08/24 03:01:21;;;;;;;;;;;11.10;91.40;;;;;;5094024;28;19920;-62
2021/08/24 03:03:46;;;;;;;;;;;11.10;91.40;;;;;;5095681;28;19969;-62
2021/08/24 03:06:12;;;;;;;;;;;11.10;91.30;;;;;;5095975;28;19920;-63
2021/08/24 03:08:38;;;;;;;;;;;11.10;91.30;;;;;;5095459;28;19916;-64
2021/08/24 03:11:03;;;;;;;;;;;11.10;91.30;;;;;;5096369;28;19965;-62
2021/08/24 03:13:44;;;;;;;;;;;11.00;91.30;;;;;;5095342;28;19999;-62
2021/08/24 03:16:18;;;;;;;;;;;11.00;91.30;;;;;;5094233;28;19920;-62
2021/08/24 03:18:49;;;;;;;;;;;10.90;91.30;;;;;;5094357;28;19916;-62
2021/08/24 03:21:20;;;;;;;;;;;10.90;91.40;;;;;;5094217;28;19916;-63
2021/08/24 03:23:46;;;;;;;;;;;10.90;91.40;;;;;;5094455;28;20455;-62
2021/08/24 03:26:13;;;;;;;;;;;10.90;91.40;;;;;;5074755;28;20304;-62
2021/08/24 03:28:40;;;;;;;;;;;10.90;91.40;;;;;;5092878;28;20003;-62
2021/08/24 03:31:06;;;;;;;;;;;10.80;91.40;;;;;;5093225;28;20300;-62
2021/08/24 03:33:31;;;;;;;;;;;10.80;91.40;;;;;;5092678;28;19920;-62
2021/08/24 03:35:57;;;;;;;;;;;10.80;91.40;;;;;;5091879;28;19916;-63
2021/08/24 03:38:22;;;;;;;;;;;10.80;91.50;;;;;;5092404;28;20021;-61
2021/08/24 03:40:48;;;;;;;;;;;10.80;91.50;;;;;;5093133;28;19916;-63
2021/08/24 03:43:13;;;;;;;;;;;10.80;91.50;;;;;;5093286;28;20285;-63
2021/08/24 03:45:39;;;;;;;;;;;10.80;91.40;;;;;;5074328;28;20373;-62
2021/08/24 03:48:05;;;;;;;;;;;10.70;91.60;;;;;;5092721;28;19916;-62
2021/08/24 03:50:30;;;;;;;;;;;10.70;91.50;;;;;;5093277;28;20213;-63
2021/08/24 03:52:56;;;;;;;;;;;10.70;91.50;;;;;;5074434;28;20261;-62
2021/08/24 03:55:22;;;;;;;;;;;10.70;91.50;;;;;;5092876;28;19939;-62
2021/08/24 03:57:47;;;;;;;;;;;10.60;91.60;;;;;;5092432;28;19916;-62
2021/08/24 04:00:13;;;;;;;;;;;10.60;91.60;;;;;;5092403;28;19916;-62
2021/08/24 04:02:38;;;;;;;;;;;10.70;91.90;;;;;;5092888;28;19916;-63
2021/08/24 04:05:04;;;;;;;;;;;10.70;91.60;;;;;;5092544;28;19924;-63
2021/08/24 04:07:30;;;;;;;;;;;10.60;91.40;;;;;;5091709;28;19962;-62
2021/08/24 04:09:56;;;;;;;;;;;10.60;91.60;;;;;;5092722;28;19923;-63
2021/08/24 04:12:22;;;;;;;;;;;10.60;91.60;;;;;;5092064;28;19916;-61
2021/08/24 04:14:48;;;;;;;;;;;10.60;91.70;;;;;;5092468;28;19966;-62
2021/08/24 04:17:13;;;;;;;;;;;10.60;91.70;;;;;;5085241;28;20007;-63
2021/08/24 04:19:39;;;;;;;;;;;10.60;91.80;;;;;;5061640;28;19939;-63
2021/08/24 04:22:06;;;;;;;;;;;10.60;91.80;;;;;;5084781;28;19916;-63
2021/08/24 04:24:32;;;;;;;;;;;10.60;91.80;;;;;;5032251;28;1729541;-63
2021/08/24 04:26:57;;;;;;;;;;;10.60;91.80;;;;;;5092533;28;19916;-62
2021/08/24 04:29:23;;;;;;;;;;;10.60;91.80;;;;;;5093322;28;19916;-63
2021/08/24 04:31:48;;;;;;;;;;;10.60;91.90;;;;;;5074744;28;19934;-63
2021/08/24 04:34:14;;;;;;;;;;;10.60;91.90;;;;;;5093438;28;19920;-62
2021/08/24 04:36:39;;;;;;;;;;;10.70;91.90;;;;;;5093176;28;19916;-62
2021/08/24 04:39:05;;;;;;;;;;;10.70;91.90;;;;;;5092601;28;19955;-62
2021/08/24 04:41:31;;;;;;;;;;;10.70;92.00;;;;;;5074982;28;19920;-62
2021/08/24 04:43:57;;;;;;;;;;;10.70;92.00;;;;;;5093024;28;19918;-62
2021/08/24 04:46:22;;;;;;;;;;;10.70;92.00;;;;;;5092481;28;19936;-62
2021/08/24 04:48:48;;;;;;;;;;;10.80;92.10;;;;;;5080585;28;19969;-63
2021/08/24 04:51:13;;;;;;;;;;;10.80;92.10;;;;;;5072180;28;20006;-62
2021/08/24 04:53:39;;;;;;;;;;;10.90;92.30;;;;;;5073005;28;19923;-63
2021/08/24 04:56:04;;;;;;;;;;;10.90;92.30;;;;;;5079964;28;20137;-62
2021/08/24 04:58:30;;;;;;;;;;;11.00;92.30;;;;;;5080162;28;19917;-63
2021/08/24 05:00:55;;;;;;;;;;;11.10;92.30;;;;;;5083015;28;19923;-62
2021/08/24 05:03:21;;;;;;;;;;;11.10;92.30;;;;;;5081888;28;19927;-62
2021/08/24 05:05:47;;;;;;;;;;;11.20;92.30;;;;;;5061683;28;20377;-62
2021/08/24 05:08:12;;;;;;;;;;;11.30;92.40;;;;;;5082414;28;19969;-62
2021/08/24 05:10:38;;;;;;;;;;;11.30;92.40;;;;;;5046521;28;19967;-62
2021/08/24 05:13:04;;;;;;;;;;;11.40;92.50;;;;;;5060489;28;19938;-62
2021/08/24 05:15:29;;;;;;;;;;;11.50;92.50;;;;;;5071892;28;20292;-62
2021/08/24 05:17:55;;;;;;;;;;;11.60;92.60;;;;;;5071101;28;19916;-62
2021/08/24 05:20:21;;;;;;;;;;;11.70;92.70;;;;;;5071900;28;19924;-62
2021/08/24 05:22:47;;;;;;;;;;;11.90;93.10;;;;;;5071945;28;19920;-62
2021/08/24 05:25:14;;;;;;;;;;;12.20;93.20;;;;;;5071085;28;19970;-62
2021/08/24 05:27:39;;;;;;;;;;;12.70;93.90;;;;;;5071516;28;20008;-62
2021/08/24 05:30:06;;;;;;;;;;;13.40;94.80;;;;;;5071793;28;19952;-62
2021/08/24 05:32:32;;;;;;;;;;;14.20;95.30;;;;;;5071535;28;19924;-62
2021/08/24 05:34:58;;;;;;;;;;;14.70;94.60;;;;;;5071599;28;19916;-62
2021/08/24 05:37:23;;;;;;;;;;;15.00;93.60;;;;;;5071016;28;19923;-62
2021/08/24 05:39:49;;;;;;;;;;;15.00;92.50;;;;;;5071742;28;19917;-62
2021/08/24 05:42:15;;;;;;;;;;;15.00;92.70;;;;;;5071688;28;20365;-62
2021/08/24 05:44:40;;;;;;;;;;;15.40;93.90;;;;;;5070894;28;19920;-62
2021/08/24 05:47:06;;;;;;;;;;;16.30;95.00;;;;;;5071035;28;19916;-62
2021/08/24 05:49:33;;;;;;;;;;;17.30;95.10;;;;;;5071420;28;19916;-63
2021/08/24 05:51:59;;;;;;;;;;;18.20;94.70;;;;;;5070945;28;19916;-63
2021/08/24 05:54:24;;;;;;;;;;;19.00;94.00;;;;;;5071163;28;20316;-62
2021/08/24 05:56:50;;;;;;;;;;;19.50;92.80;;;;;;5053164;28;20296;-63
2021/08/24 05:59:15;;;;;;;;;;;19.80;91.70;;;;;;5070715;28;19917;-63
2021/08/24 06:01:41;;;;;;;;;;;20.10;91.30;;;;;;5052563;28;19920;-63
2021/08/24 06:04:07;;;;;;;;;;;20.60;91.70;;;;;;5070500;28;19916;-62
2021/08/24 06:06:34;;;;;;;;;;;21.20;91.30;;;;;;5071003;28;19920;-63
2021/08/24 06:09:01;;;;;;;;;;;22.00;90.60;;;;;;5052859;28;20368;-63
2021/08/24 06:11:31;;;;;;;;;;;22.80;89.00;;;;;;5070446;28;20050;-63
2021/08/24 06:13:58;;;;;;;;;;;23.50;86.00;;;;;;5071278;28;19916;-63
2021/08/24 06:16:24;;;;;;;;;;;24.30;83.10;;;;;;5070622;28;19913;-63
2021/08/24 06:18:50;;;;;;;;;;;24.90;81.10;;;;;;5070616;28;19922;-63
2021/08/24 06:21:16;;;;;;;;;;;25.50;78.50;;;;;;5070475;28;19934;-65
2021/08/24 06:23:42;;;;;;;;;;;26.10;76.30;;;;;;5052393;28;19963;-65
2021/08/24 06:26:08;;;;;;;;;;;26.50;72.60;;;;;;5070637;28;19921;-65
2021/08/24 06:28:33;;;;;;;;;;;26.80;71.10;;;;;;5052645;28;20261;-65
2021/08/24 06:30:59;;;;;;;;;;;27.00;68.40;;;;;;5052312;28;20363;-65
2021/08/24 06:33:26;;;;;;;;;;;27.30;66.40;;;;;;5053122;28;19921;-65
2021/08/24 06:35:52;;;;;;;;;;;27.70;65.90;;;;;;5052658;28;20333;-65
2021/08/24 06:38:17;;;;;;;;;;;28.30;64.10;;;;;;5070329;28;19923;-65
2021/08/24 06:40:43;;;;;;;;;;;28.80;62.10;;;;;;5070944;28;20343;-65
2021/08/24 06:43:08;;;;;;;;;;;29.20;60.30;;;;;;5070277;28;19921;-65
2021/08/24 06:45:34;;;;;;;;;;;29.70;59.10;;;;;;5070748;28;20015;-65
2021/08/24 06:48:00;;;;;;;;;;;30.20;56.80;;;;;;5054432;28;19927;-65
2021/08/24 06:50:27;;;;;;;;;;;30.50;55.50;;;;;;5036054;28;20323;-65
2021/08/24 06:52:53;;;;;;;;;;;30.70;53.80;;;;;;5070662;28;20377;-65
2021/08/24 06:55:19;;;;;;;;;;;30.90;52.80;;;;;;5070163;28;19927;-65
2021/08/24 06:57:45;;;;;;;;;;;31.40;52.10;;;;;;5070504;28;19939;-64
2021/08/24 07:00:13;;;;;;;;;;;32.00;51.10;;;;;;5070854;28;20304;-65
2021/08/24 07:02:39;;;;;;;;;;;32.30;48.50;;;;;;5070213;28;19916;-64
2021/08/24 07:05:05;;;;;;;;;;;32.20;47.20;;;;;;5070497;28;19931;-64
2021/08/24 07:07:30;;;;;;;;;;;32.30;47.60;;;;;;5070450;28;20039;-64
2021/08/24 07:09:56;;;;;;;;;;;32.80;46.80;;;;;;5070190;28;19970;-65
2021/08/24 07:12:21;;;;;;;;;;;33.40;45.60;;;;;;5070626;28;19921;-65
2021/08/24 07:14:47;;;;;;;;;;;33.80;45.00;;;;;;5073537;28;19916;-65
2021/08/24 07:17:14;;;;;;;;;;;34.10;43.60;;;;;;5073974;28;20100;-65
2021/08/24 07:19:40;;;;;;;;;;;33.90;42.00;;;;;;5074088;28;20274;-65
2021/08/24 07:22:05;;;;;;;;;;;33.70;42.10;;;;;;5073505;28;19923;-64
2021/08/24 07:24:31;;;;;;;;;;;34.00;42.20;;;;;;5073850;28;20016;-64
2021/08/24 07:26:56;;;;;;;;;;;34.20;40.50;;;;;;5073833;28;19950;-64
2021/08/24 07:29:22;;;;;;;;;;;33.60;39.70;;;;;;5073489;28;19935;-63
2021/08/24 07:31:48;;;;;;;;;;;32.90;39.20;;;;;;5074001;28;20336;-64
2021/08/24 07:34:13;;;;;;;;;;;32.20;40.20;;;;;;5073504;28;19916;-64
2021/08/24 07:36:39;;;;;;;;;;;32.50;41.50;;;;;;5072775;28;19917;-65
2021/08/24 07:39:05;;;;;;;;;;;33.50;42.10;;;;;;5073213;28;19927;-66
2021/08/24 07:41:31;;;;;;;;;;;34.90;41.20;;;;;;5055435;28;19966;-65
2021/08/24 07:43:56;;;;;;;;;;;36.10;40.00;;;;;;5057538;28;20292;-65
2021/08/24 07:46:22;;;;;;;;;;;36.90;38.00;;;;;;5075986;28;19928;-62
2021/08/24 07:48:47;;;;;;;;;;;37.10;36.90;;;;;;5074456;28;19916;-62
2021/08/24 07:51:13;;;;;;;;;;;37.00;35.80;;;;;;5073884;28;19916;-62
2021/08/24 07:53:39;;;;;;;;;;;37.30;36.60;;;;;;5073187;28;20006;-61
2021/08/24 07:56:06;;;;;;;;;;;38.00;36.20;;;;;;5072878;28;19964;-62
2021/08/24 07:58:32;;;;;;;;;;;38.60;35.20;;;;;;5088850;28;20606;-62
2021/08/24 08:00:57;;;;;;;;;;;38.60;33.90;;;;;;5074255;28;19920;-61
2021/08/24 08:03:23;;;;;;;;;;;38.00;33.50;;;;;;5073591;28;20391;-61
2021/08/24 08:05:49;;;;;;;;;;;37.90;34.20;;;;;;5092813;28;19931;-62
2021/08/24 08:08:14;;;;;;;;;;;38.60;34.60;;;;;;5092283;28;19916;-62
2021/08/24 08:10:40;;;;;;;;;;;39.40;33.90;;;;;;5093058;28;20015;-62
2021/08/24 08:13:06;;;;;;;;;;;40.10;32.60;;;;;;5092832;28;19916;-61
2021/08/24 08:15:33;;;;;;;;;;;40.50;32.10;;;;;;5074230;28;19948;-61
2021/08/24 08:18:03;;;;;;;;;;;40.90;31.60;;;;;;5092991;28;19916;-61
2021/08/24 08:20:29;;;;;;;;;;;41.30;31.20;;;;;;5074524;28;19916;-61
2021/08/24 08:22:54;;;;;;;;;;;41.80;31.10;;;;;;5093201;28;19923;-61
2021/08/24 08:25:20;;;;;;;;;;;41.90;30.00;;;;;;5090820;28;19920;-61
2021/08/24 08:27:46;;;;;;;;;;;42.00;29.70;;;;;;5092988;28;19920;-62
2021/08/24 08:30:12;;;;;;;;;;;42.00;29.60;;;;;;5093223;28;19923;-63
2021/08/24 08:32:39;;;;;;;;;;;42.00;29.30;;;;;;5093071;28;19916;-61
2021/08/24 08:35:06;;;;;;;;;;;41.90;29.10;;;;;;5092770;28;19916;-61
2021/08/24 08:37:31;;;;;;;;;;;41.80;28.70;;;;;;5092698;28;19920;-60
2021/08/24 08:39:57;;;;;;;;;;;41.70;28.50;;;;;;5092490;28;19923;-63
2021/08/24 08:42:22;;;;;;;;;;;41.70;28.20;;;;;;5092787;28;19920;-63
2021/08/24 08:44:53;;;;;;;;;;;41.40;28.10;;;;;;5092810;28;19928;-63
2021/08/24 08:47:18;;;;;;;;;;;41.20;28.20;;;;;;5091678;28;20334;-62
2021/08/24 08:50:00;;;;;;;;;;;41.40;28.10;;;;;;5092806;28;19920;-63
2021/08/24 08:52:35;;;;;;;;;;;41.80;28.20;;;;;;5092210;28;20276;-61
2021/08/24 08:55:03;;;;;;;;;;;42.40;27.90;;;;;;5092742;28;20284;-62
2021/08/24 08:57:35;;;;;;;;;;;42.10;27.40;;;;;;5073600;28;19916;-61
2021/08/24 09:00:07;;;;;;;;;;;41.80;27.50;;;;;;5092701;28;19916;-62
2021/08/24 09:02:48;;;;;;;;;;;42.10;27.80;;;;;;5092221;28;19942;-63
2021/08/24 09:05:15;;;;;;;;;;;42.60;27.50;;;;;;5092215;28;19920;-61
2021/08/24 09:07:42;;;;;;;;;;;43.00;27.10;;;;;;5091689;28;19966;-61
2021/08/24 09:10:19;;;;;;;;;;;43.30;26.90;;;;;;5092311;28;19922;-62
2021/08/24 09:12:52;;;;;;;;;;;43.30;26.50;;;;;;5091901;28;19930;-61
2021/08/24 09:15:20;;;;;;;;;;;43.40;26.70;;;;;;5092125;28;20390;-61
2021/08/24 09:17:46;;;;;;;;;;;43.80;26.70;;;;;;5091545;28;19916;-61
2021/08/24 09:20:20;;;;;;;;;;;44.10;26.40;;;;;;5092140;28;19948;-61
2021/08/24 09:22:47;;;;;;;;;;;43.90;26.10;;;;;;5092012;28;20003;-61
2021/08/24 09:25:45;;;;;;;;;;;43.80;26.10;;;;;;5056604;28;19973;-61
2021/08/24 09:28:21;;;;;;;;;;;43.70;25.70;;;;;;5046390;28;19916;-61
2021/08/24 09:30:47;;;;;;;;;;;43.60;25.80;;;;;;5091999;28;19942;-62
2021/08/24 09:33:13;;;;;;;;;;;43.40;25.90;;;;;;5091485;28;19920;-64
2021/08/24 09:35:43;;;;;;;;;;;43.30;26.00;;;;;;5091587;28;19916;-69
2021/08/24 09:38:16;;;;;;;;;;;43.30;25.90;;;;;;5091588;28;19916;-69
2021/08/24 09:40:44;;;;;;;;;;;43.30;25.80;;;;;;5091756;28;19927;-68
2021/08/24 09:43:29;;;;;;;;;;;43.20;25.90;;;;;;5091714;28;19920;-68
2021/08/24 09:46:01;;;;;;;;;;;42.80;25.40;;;;;;5091120;28;19920;-68
2021/08/24 09:48:28;;;;;;;;;;;42.30;26.10;;;;;;5091314;28;20383;-67
2021/08/24 09:50:54;;;;;;;;;;;42.70;26.00;;;;;;5091454;28;19912;-67
2021/08/24 09:53:38;;;;;;;;;;;42.60;25.20;;;;;;5091713;28;20268;-67
2021/08/24 09:56:06;;;;;;;;;;;41.60;25.30;;;;;;5073122;28;20003;-68
2021/08/24 09:58:36;;;;;;;;;;;41.80;26.00;;;;;;5091480;28;19926;-68
2021/08/24 10:01:03;;;;;;;;;;;41.90;25.30;;;;;;5091158;28;19990;-63
2021/08/24 10:03:32;;;;;;;;;;;40.50;24.80;;;;;;5091541;28;19916;-67
2021/08/24 10:06:03;;;;;;;;;;;39.60;25.80;;;;;;5091359;28;19920;-67
2021/08/24 10:08:31;;;;;;;;;;;39.70;26.10;;;;;;5090877;28;19950;-67
2021/08/24 10:11:09;;;;;;;;;;;40.50;26.40;;;;;;5091564;28;19964;-67
2021/08/24 10:13:37;;;;;;;;;;;41.00;25.30;;;;;;5073018;28;19924;-67
2021/08/24 10:16:08;;;;;;;;;;;40.10;25.10;;;;;;5091347;28;19924;-66
2021/08/24 10:18:34;;;;;;;;;;;39.30;25.40;;;;;;5090587;28;19916;-67
2021/08/24 10:21:02;;;;;;;;;;;38.20;25.40;;;;;;5091505;28;19916;-66
2021/08/24 10:23:37;;;;;;;;;;;38.10;26.60;;;;;;5091088;28;20384;-67
2021/08/24 10:26:20;;;;;;;;;;;38.70;26.80;;;;;;5090778;28;20372;-67
2021/08/24 10:28:50;;;;;;;;;;;39.30;26.40;;;;;;5090625;28;20399;-66
2021/08/24 10:31:16;;;;;;;;;;;39.50;26.20;;;;;;5091216;28;20371;-67
2021/08/24 10:33:51;;;;;;;;;;;39.90;26.00;;;;;;5073159;28;19924;-67
2021/08/24 10:36:22;;;;;;;;;;;40.30;25.90;;;;;;5072631;28;19916;-67
2021/08/24 10:38:59;;;;;;;;;;;41.00;25.80;;;;;;5090855;28;20307;-69
2021/08/24 10:41:30;;;;;;;;;;;41.60;25.40;;;;;;5090963;28;19978;-68
2021/08/24 10:43:57;;;;;;;;;;;41.90;25.00;;;;;;5073080;28;19917;-68
2021/08/24 10:46:23;;;;;;;;;;;41.70;24.20;;;;;;5072514;28;19916;-68
2021/08/24 10:48:49;;;;;;;;;;;41.50;24.90;;;;;;5093010;28;20002;-67
2021/08/24 10:51:33;;;;;;;;;;;41.50;24.70;;;;;;5094725;28;20054;-67
2021/08/24 10:53:59;;;;;;;;;;;41.60;24.80;;;;;;5095029;28;20018;-68
2021/08/24 10:56:28;;;;;;;;;;;41.40;24.60;;;;;;5094862;28;20387;-68
2021/08/24 10:59:00;;;;;;;;;;;41.20;25.00;;;;;;5094199;28;19924;-68
2021/08/24 11:01:30;;;;;;;;;;;41.00;24.90;;;;;;5094928;28;19922;-68
2021/08/24 11:04:18;;;;;;;;;;;40.80;25.10;;;;;;5094495;28;19916;-67
2021/08/24 11:06:52;;;;;;;;;;;41.40;25.50;;;;;;5094336;28;19986;-67
2021/08/24 11:09:25;;;;;;;;;;;42.50;25.50;;;;;;5094282;28;20026;-67
2021/08/24 11:12:19;;;;;;;;;;;42.30;24.40;;;;;;5094701;28;20364;-67
2021/08/24 11:14:56;;;;;;;;;;;41.70;24.30;;;;;;5091695;28;19920;-65
2021/08/24 11:17:37;;;;;;;;;;;40.00;24.30;;;;;;5094135;28;19920;-66
2021/08/24 11:20:15;;;;;;;;;;;39.60;25.40;;;;;;5094021;28;20333;-68
2021/08/24 11:22:59;;;;;;;;;;;40.00;25.50;;;;;;5094154;28;19924;-68
2021/08/24 11:25:55;;;;;;;;;;;40.40;25.60;;;;;;5094243;28;19927;-68
2021/08/24 11:28:21;;;;;;;;;;;41.60;25.70;;;;;;5076621;28;19916;-67
2021/08/24 11:30:49;;;;;;;;;;;42.50;25.40;;;;;;5094250;28;19938;-68
2021/08/24 11:33:17;;;;;;;;;;;42.20;24.60;;;;;;5092742;28;19923;-67
2021/08/24 11:35:46;;;;;;;;;;;41.50;25.00;;;;;;5093837;28;19931;-67
2021/08/24 11:38:19;;;;;;;;;;;42.00;25.30;;;;;;5075412;28;19943;-64
2021/08/24 11:40:48;;;;;;;;;;;42.80;25.20;;;;;;5094086;28;19920;-67
2021/08/24 11:43:20;;;;;;;;;;;41.50;23.90;;;;;;5093765;28;19964;-65
2021/08/24 11:45:55;;;;;;;;;;;38.80;24.00;;;;;;5093744;28;19920;-66
2021/08/24 11:48:32;;;;;;;;;;;36.30;25.50;;;;;;5093669;28;19916;-66
2021/08/24 11:51:02;;;;;;;;;;;35.90;27.10;;;;;;5093703;28;19916;-67
2021/08/24 11:53:32;;;;;;;;;;;36.30;26.90;;;;;;5093740;28;20372;-66
2021/08/24 11:55:59;;;;;;;;;;;36.60;27.10;;;;;;5093204;28;20383;-65
2021/08/24 11:58:35;;;;;;;;;;;37.10;27.60;;;;;;5093505;28;20431;-67
2021/08/24 12:01:04;;;;;;;;;;;37.20;27.50;;;;;;5093072;28;19923;-67
2021/08/24 12:03:31;;;;;;;;;;;37.20;27.30;;;;;;5093438;28;20327;-66
2021/08/24 12:06:15;;;;;;;;;;;36.50;26.40;;;;;;5093266;28;19931;-66
2021/08/24 12:08:45;;;;;;;;;;;35.70;27.10;;;;;;5093063;28;19962;-66
2021/08/24 12:11:14;;;;;;;;;;;34.50;27.00;;;;;;5075426;28;19916;-66
2021/08/24 12:13:41;;;;;;;;;;;33.20;27.20;;;;;;5093088;28;20288;-67
2021/08/24 12:16:28;;;;;;;;;;;32.40;28.30;;;;;;5093283;28;19982;-67
2021/08/24 12:18:54;;;;;;;;;;;32.10;28.70;;;;;;5092635;28;19948;-62
2021/08/24 12:21:23;;;;;;;;;;;31.60;28.60;;;;;;5093309;28;20009;-62
2021/08/24 12:23:49;;;;;;;;;;;31.00;28.70;;;;;;5094575;28;19912;-61
2021/08/24 12:26:25;;;;;;;;;;;30.10;28.70;;;;;;5093172;28;20403;-62
2021/08/24 12:28:51;;;;;;;;;;;29.50;29.40;;;;;;5092363;28;19920;-62
2021/08/24 12:31:22;;;;;;;;;;;29.10;30.00;;;;;;5092925;28;20015;-62
2021/08/24 12:33:48;;;;;;;;;;;29.10;30.50;;;;;;5092719;28;19916;-63
2021/08/24 12:36:16;;;;;;;;;;;29.40;30.80;;;;;;5091386;28;20437;-62
2021/08/24 12:38:42;;;;;;;;;;;29.70;30.20;;;;;;5074484;28;19921;-62
2021/08/24 12:41:07;;;;;;;;;;;29.50;30.00;;;;;;5074211;28;20023;-62
2021/08/24 12:43:41;;;;;;;;;;;29.40;30.50;;;;;;5091484;28;19920;-62
2021/08/24 12:46:19;;;;;;;;;;;29.50;31.00;;;;;;5092590;28;19920;-62
2021/08/24 12:49:03;;;;;;;;;;;30.20;30.90;;;;;;5092080;28;19938;-62
2021/08/24 12:51:33;;;;;;;;;;;31.20;30.80;;;;;;5092286;28;19916;-63
2021/08/24 12:54:02;;;;;;;;;;;31.30;29.80;;;;;;5092649;28;19917;-62
2021/08/24 12:56:36;;;;;;;;;;;30.60;29.70;;;;;;5092409;28;19912;-62
2021/08/24 12:59:02;;;;;;;;;;;29.70;29.70;;;;;;5092179;28;19920;-62
2021/08/24 13:01:28;;;;;;;;;;;28.70;30.00;;;;;;5074166;28;20403;-61
2021/08/24 13:03:59;;;;;;;;;;;28.00;30.80;;;;;;5092069;28;20330;-62
2021/08/24 13:06:26;;;;;;;;;;;27.50;31.40;;;;;;5092220;28;19920;-62
2021/08/24 13:09:11;;;;;;;;;;;27.10;31.80;;;;;;5091564;28;19969;-64
2021/08/24 13:11:39;;;;;;;;;;;26.50;31.80;;;;;;5073773;28;19969;-62
2021/08/24 13:14:05;;;;;;;;;;;26.10;32.90;;;;;;5091713;28;20026;-62
2021/08/24 13:16:33;;;;;;;;;;;26.00;33.70;;;;;;5091962;28;19946;-62
2021/08/24 13:19:01;;;;;;;;;;;26.10;34.00;;;;;;5091839;28;19923;-62
2021/08/24 13:21:34;;;;;;;;;;;26.30;34.30;;;;;;5091731;28;20376;-62
2021/08/24 13:24:07;;;;;;;;;;;26.70;34.00;;;;;;5092194;28;20046;-62
2021/08/24 13:26:52;;;;;;;;;;;27.00;33.70;;;;;;5091459;28;19926;-61
2021/08/24 13:29:18;;;;;;;;;;;26.70;33.10;;;;;;5091880;28;19916;-62
2021/08/24 13:31:53;;;;;;;;;;;26.20;33.70;;;;;;5091388;28;20376;-62
2021/08/24 13:34:22;;;;;;;;;;;25.90;33.70;;;;;;5092028;28;20361;-62
2021/08/24 13:36:49;;;;;;;;;;;25.60;33.80;;;;;;5091198;28;20270;-61
2021/08/24 13:39:15;;;;;;;;;;;25.30;34.30;;;;;;5091694;28;20253;-62
2021/08/24 13:41:40;;;;;;;;;;;25.00;34.40;;;;;;5091228;28;19916;-62
2021/08/24 13:44:13;;;;;;;;;;;24.90;34.80;;;;;;5091660;28;19963;-62
2021/08/24 13:46:41;;;;;;;;;;;24.80;35.30;;;;;;5090894;28;20303;-63
2021/08/24 13:49:07;;;;;;;;;;;24.60;35.30;;;;;;5091571;28;19916;-61
2021/08/24 13:51:45;;;;;;;;;;;24.50;35.80;;;;;;5091566;28;20284;-61
2021/08/24 13:54:14;;;;;;;;;;;24.40;36.10;;;;;;5091313;28;20005;-62
2021/08/24 13:56:40;;;;;;;;;;;24.30;36.10;;;;;;5091264;28;19946;-62
2021/08/24 13:59:06;;;;;;;;;;;24.20;36.30;;;;;;5073415;28;19916;-62
2021/08/24 14:01:39;;;;;;;;;;;24.00;36.10;;;;;;5090994;28;19916;-60
2021/08/24 14:04:06;;;;;;;;;;;23.90;36.30;;;;;;5091501;28;19917;-61
2021/08/24 14:06:40;;;;;;;;;;;23.70;36.40;;;;;;5090780;28;19920;-61
2021/08/24 14:09:31;;;;;;;;;;;23.60;36.60;;;;;;5091145;28;19916;-61
2021/08/24 14:11:59;;;;;;;;;;;23.60;37.00;;;;;;5059451;28;19916;-61
2021/08/24 14:14:34;;;;;;;;;;;23.70;37.10;;;;;;5091108;28;20048;-61
2021/08/24 14:17:01;;;;;;;;;;;23.70;37.30;;;;;;5090501;28;19942;-61
2021/08/24 14:19:30;;;;;;;;;;;23.60;37.50;;;;;;5073477;28;20399;-61
2021/08/24 14:22:04;;;;;;;;;;;23.60;38.40;;;;;;5072805;28;19916;-62
2021/08/24 14:24:31;;;;;;;;;;;23.60;37.90;;;;;;5094542;28;19916;-61
2021/08/24 14:26:57;;;;;;;;;;;23.60;38.10;;;;;;5095051;28;20372;-64